createdAt,value
2022-08-22T00:00:22.363Z,22.67
2022-08-22T00:02:59.072Z,22.89
2022-08-22T00:03:08.734Z,22.91
2022-08-22T00:03:28.595Z,22.66
2022-08-22T00:06:08.221Z,22.66
2022-08-22T00:08:44.926Z,22.70
2022-08-22T00:11:25.825Z,22.67
2022-08-22T00:14:02.226Z,22.53
2022-08-22T00:16:35.638Z,22.61
2022-08-22T00:19:13.401Z,22.54
2022-08-22T00:21:45.747Z,22.60
2022-08-22T00:24:20.790Z,22.59
2022-08-22T00:26:53.995Z,22.62
2022-08-22T00:29:28.726Z,22.63
2022-08-22T00:32:06.661Z,22.65
2022-08-22T00:34:40.124Z,22.73
2022-08-22T00:37:11.398Z,22.79
2022-08-22T00:39:45.540Z,22.81
2022-08-22T00:42:45.216Z,22.77
2022-08-22T00:45:34.659Z,22.70
2022-08-22T00:48:17.552Z,22.74
2022-08-22T00:51:03.223Z,22.73
2022-08-22T00:53:54.386Z,22.76
2022-08-22T00:56:48.582Z,22.68
2022-08-22T01:00:03.727Z,22.69
2022-08-22T01:02:52.279Z,22.63
2022-08-22T01:05:37.114Z,22.52
2022-08-22T01:08:16.077Z,22.55
2022-08-22T01:11:03.577Z,22.54
2022-08-22T01:13:53.254Z,22.52
2022-08-22T01:16:44.569Z,22.55
2022-08-22T01:19:44.778Z,22.45
2022-08-22T01:22:39.211Z,22.59
2022-08-22T01:25:41.034Z,22.66
2022-08-22T01:28:32.996Z,22.66
2022-08-22T01:31:32.665Z,22.63
2022-08-22T01:34:40.523Z,22.65
2022-08-22T01:37:27.657Z,22.56
2022-08-22T01:40:25.218Z,22.62
2022-08-22T01:43:05.943Z,22.63
2022-08-22T01:45:57.775Z,22.61
2022-08-22T01:48:37.063Z,22.61
2022-08-22T01:51:18.629Z,22.64
2022-08-22T01:53:56.423Z,22.63
2022-08-22T01:56:27.375Z,22.62
2022-08-22T01:58:59.977Z,22.59
2022-08-22T02:01:43.390Z,22.54
2022-08-22T02:04:19.920Z,22.58
2022-08-22T02:07:01.354Z,22.56
2022-08-22T02:09:40.810Z,22.48
2022-08-22T02:12:32.814Z,22.44
2022-08-22T02:15:15.539Z,22.44
2022-08-22T02:18:01.109Z,22.28
2022-08-22T02:20:34.317Z,22.15
2022-08-22T02:23:16.205Z,22.25
2022-08-22T02:25:54.258Z,22.33
2022-08-22T02:28:33.406Z,22.35
2022-08-22T02:31:11.596Z,22.38
2022-08-22T02:33:55.385Z,22.34
2022-08-22T02:36:27.765Z,22.37
2022-08-22T02:39:09.588Z,22.36
2022-08-22T02:41:48.734Z,22.36
2022-08-22T02:44:22.158Z,22.35
2022-08-22T02:46:57.227Z,22.36
2022-08-22T02:49:33.347Z,22.32
2022-08-22T02:52:11.133Z,22.36
2022-08-22T02:54:49.981Z,22.32
2022-08-22T02:57:24.570Z,22.34
2022-08-22T03:00:31.527Z,22.32
2022-08-22T03:03:07.674Z,22.31
2022-08-22T03:05:51.928Z,22.30
2022-08-22T03:08:24.818Z,22.30
2022-08-22T03:11:05.870Z,22.27
2022-08-22T03:13:45.154Z,22.24
2022-08-22T03:16:19.702Z,22.24
2022-08-22T03:18:57.968Z,22.24
2022-08-22T03:21:32.186Z,22.23
2022-08-22T03:24:09.058Z,22.22
2022-08-22T03:26:50.030Z,22.21
2022-08-22T03:29:22.825Z,21.95
2022-08-22T03:32:12.581Z,22.18
2022-08-22T03:34:56.419Z,22.17
2022-08-22T03:37:26.685Z,22.15
2022-08-22T03:40:03.505Z,22.09
2022-08-22T03:42:56.186Z,22.10
2022-08-22T03:45:48.717Z,22.12
2022-08-22T03:48:40.101Z,22.08
2022-08-22T03:51:32.694Z,22.10
2022-08-22T03:54:25.346Z,22.06
2022-08-22T03:57:26.835Z,22.06
2022-08-22T04:00:18.593Z,21.98
2022-08-22T04:03:17.184Z,22.04
2022-08-22T04:06:17.753Z,22.03
2022-08-22T04:09:05.552Z,22.04
2022-08-22T04:11:53.784Z,22.04
2022-08-22T04:15:01.559Z,22.00
2022-08-22T04:17:59.803Z,22.02
2022-08-22T04:21:09.677Z,22.07
2022-08-22T04:23:58.086Z,22.05
2022-08-22T04:26:35.071Z,22.15
2022-08-22T04:29:09.251Z,22.20
2022-08-22T04:31:48.407Z,22.20
2022-08-22T04:34:30.345Z,22.21
2022-08-22T04:37:05.934Z,22.26
2022-08-22T04:39:40.196Z,22.25
2022-08-22T04:42:35.121Z,22.29
2022-08-22T04:45:11.109Z,22.53
2022-08-22T04:47:42.636Z,22.61
2022-08-22T04:50:22.403Z,22.71
2022-08-22T04:53:15.218Z,22.81
2022-08-22T04:55:56.045Z,22.94
2022-08-22T04:58:34.470Z,22.95
2022-08-22T05:01:10.855Z,23.16
2022-08-22T05:03:45.989Z,23.18
2022-08-22T05:06:19.282Z,23.26
2022-08-22T05:08:53.822Z,23.43
2022-08-22T05:11:25.146Z,23.54
2022-08-22T05:13:56.307Z,23.83
2022-08-22T05:16:29.718Z,23.81
2022-08-22T05:19:00.682Z,23.89
2022-08-22T05:21:35.795Z,23.98
2022-08-22T05:24:06.918Z,24.04
2022-08-22T05:26:39.424Z,24.07
2022-08-22T05:29:10.888Z,24.02
2022-08-22T05:31:45.187Z,24.10
2022-08-22T05:34:17.466Z,24.14
2022-08-22T05:36:51.941Z,24.21
2022-08-22T05:39:25.458Z,24.20
2022-08-22T05:41:58.869Z,24.26
2022-08-22T05:44:33.129Z,24.16
2022-08-22T05:47:04.879Z,24.15
2022-08-22T05:49:39.129Z,24.20
2022-08-22T05:52:17.964Z,24.29
2022-08-22T05:54:52.284Z,24.41
2022-08-22T05:57:29.037Z,24.36
2022-08-22T06:00:04.112Z,24.42
2022-08-22T06:02:49.967Z,24.49
2022-08-22T06:05:26.019Z,24.55
2022-08-22T06:08:02.343Z,24.60
2022-08-22T06:10:41.608Z,24.74
2022-08-22T06:13:16.682Z,24.82
2022-08-22T06:16:04.138Z,24.78
2022-08-22T06:18:34.065Z,24.78
2022-08-22T06:21:06.365Z,24.80
2022-08-22T06:23:41.594Z,24.70
2022-08-22T06:26:21.022Z,24.76
2022-08-22T06:28:54.961Z,24.76
2022-08-22T06:31:28.787Z,24.78
2022-08-22T06:34:01.971Z,24.71
2022-08-22T06:36:32.083Z,24.78
2022-08-22T06:39:12.605Z,24.83
2022-08-22T06:41:46.795Z,24.94
2022-08-22T06:44:20.135Z,24.97
2022-08-22T06:46:49.517Z,25.06
2022-08-22T06:49:18.847Z,25.15
2022-08-22T06:51:48.125Z,25.17
2022-08-22T06:54:22.699Z,25.22
2022-08-22T06:56:54.557Z,25.31
2022-08-22T06:59:27.731Z,25.32
2022-08-22T07:02:03.690Z,25.66
2022-08-22T07:04:32.956Z,25.68
2022-08-22T07:07:03.577Z,25.85
2022-08-22T07:09:37.237Z,25.68
2022-08-22T07:12:12.963Z,25.51
2022-08-22T07:14:43.468Z,25.34
2022-08-22T07:17:19.607Z,25.23
2022-08-22T07:19:56.093Z,25.42
2022-08-22T07:22:26.193Z,25.42
2022-08-22T07:24:59.286Z,25.38
2022-08-22T07:27:41.128Z,25.59
2022-08-22T07:30:13.222Z,25.75
2022-08-22T07:32:50.526Z,26.10
2022-08-22T07:35:22.662Z,26.30
2022-08-22T07:37:58.771Z,26.75
2022-08-22T07:40:35.487Z,26.98
2022-08-22T07:43:12.094Z,27.36
2022-08-22T07:45:48.350Z,27.51
2022-08-22T07:48:26.302Z,27.48
2022-08-22T07:51:04.469Z,27.29
2022-08-22T07:53:40.812Z,27.44
2022-08-22T07:56:16.783Z,27.44
2022-08-22T07:58:48.834Z,27.62
2022-08-22T08:01:20.618Z,27.82
2022-08-22T08:03:54.327Z,27.92
2022-08-22T08:06:24.450Z,27.83
2022-08-22T08:08:55.502Z,27.55
2022-08-22T08:11:30.319Z,27.53
2022-08-22T08:14:02.278Z,27.40
2022-08-22T08:16:36.818Z,27.50
2022-08-22T08:19:05.178Z,27.76
2022-08-22T08:21:38.834Z,27.85
2022-08-22T08:24:09.904Z,27.83
2022-08-22T08:27:06.788Z,27.94
2022-08-22T08:29:34.752Z,27.92
2022-08-22T08:32:03.528Z,28.16
2022-08-22T08:34:34.687Z,28.05
2022-08-22T08:37:12.765Z,27.99
2022-08-22T08:39:48.722Z,27.98
2022-08-22T08:43:15.077Z,27.99
2022-08-22T08:46:10.955Z,28.04
2022-08-22T08:49:00.077Z,27.92
2022-08-22T08:51:47.440Z,27.89
2022-08-22T08:54:29.974Z,27.79
2022-08-22T08:57:08.731Z,27.69
2022-08-22T08:59:49.436Z,27.71
2022-08-22T09:02:47.021Z,28.03
2022-08-22T09:05:36.118Z,28.50
2022-08-22T09:08:35.608Z,28.46
2022-08-22T09:11:25.210Z,28.45
2022-08-22T09:14:11.914Z,28.46
2022-08-22T09:16:58.015Z,28.68
2022-08-22T09:19:54.651Z,28.97
2022-08-22T09:22:50.044Z,29.24
2022-08-22T09:25:38.394Z,29.65
2022-08-22T09:28:16.592Z,29.81
2022-08-22T09:31:47.553Z,29.90
2022-08-22T09:34:24.093Z,30.01
2022-08-22T09:37:13.183Z,30.16
2022-08-22T09:39:52.205Z,30.32
2022-08-22T09:42:24.277Z,29.98
2022-08-22T09:45:00.837Z,29.75
2022-08-22T09:47:35.795Z,29.63
2022-08-22T09:50:17.588Z,29.94
2022-08-22T09:53:04.039Z,30.13
2022-08-22T09:55:42.179Z,30.15
2022-08-22T09:58:23.745Z,30.54
2022-08-22T10:01:01.096Z,30.71
2022-08-22T10:03:54.451Z,30.34
2022-08-22T10:06:28.925Z,30.33
2022-08-22T10:09:04.980Z,30.39
2022-08-22T10:11:43.345Z,30.20
2022-08-22T10:14:22.327Z,30.38
2022-08-22T10:16:59.761Z,30.35
2022-08-22T10:19:33.919Z,30.39
2022-08-22T10:22:30.028Z,30.05
2022-08-22T10:25:25.890Z,29.84
2022-08-22T10:28:14.328Z,29.79
2022-08-22T10:30:54.956Z,29.38
2022-08-22T10:33:29.556Z,29.43
2022-08-22T10:36:04.908Z,29.65
2022-08-22T10:38:46.280Z,30.00
2022-08-22T10:41:28.734Z,29.89
2022-08-22T10:44:04.521Z,29.91
2022-08-22T10:46:38.893Z,30.03
2022-08-22T10:49:16.476Z,29.94
2022-08-22T10:51:53.243Z,29.89
2022-08-22T10:54:44.334Z,29.60
2022-08-22T10:57:25.290Z,29.61
2022-08-22T11:00:03.035Z,29.88
2022-08-22T11:03:00.965Z,30.11
2022-08-22T11:05:39.344Z,30.33
2022-08-22T11:08:34.599Z,30.38
2022-08-22T11:11:41.225Z,30.75
2022-08-22T11:14:38.122Z,30.70
2022-08-22T11:17:30.209Z,30.71
2022-08-22T11:20:13.668Z,30.65
2022-08-22T11:22:48.796Z,30.61
2022-08-22T11:25:36.019Z,30.34
2022-08-22T11:28:24.789Z,29.98
2022-08-22T11:31:09.017Z,29.65
2022-08-22T11:33:46.788Z,29.72
2022-08-22T11:36:37.663Z,29.62
2022-08-22T11:39:23.626Z,29.25
2022-08-22T11:42:02.989Z,29.27
2022-08-22T11:44:37.550Z,29.65
2022-08-22T11:47:27.266Z,29.63
2022-08-22T11:50:02.694Z,29.77
2022-08-22T11:52:53.608Z,29.82
2022-08-22T11:55:32.631Z,30.13
2022-08-22T11:58:18.329Z,30.14
2022-08-22T12:00:56.824Z,30.16
2022-08-22T12:03:42.669Z,30.29
2022-08-22T12:06:36.303Z,30.17
2022-08-22T12:09:19.298Z,30.30
2022-08-22T12:12:13.896Z,30.26
2022-08-22T12:14:51.431Z,30.18
2022-08-22T12:17:54.920Z,30.20
2022-08-22T12:20:45.451Z,30.31
2022-08-22T12:23:43.383Z,30.30
2022-08-22T12:26:27.201Z,30.40
2022-08-22T12:29:15.470Z,30.31
2022-08-22T12:32:17.278Z,30.33
2022-08-22T12:35:13.545Z,30.25
2022-08-22T12:37:53.649Z,30.30
2022-08-22T12:40:40.105Z,29.95
2022-08-22T12:43:42.352Z,29.96
2022-08-22T12:46:18.786Z,30.03
2022-08-22T12:49:01.446Z,29.97
2022-08-22T12:51:44.873Z,30.08
2022-08-22T12:54:48.165Z,30.14
2022-08-22T12:57:28.017Z,29.98
2022-08-22T13:00:02.006Z,30.01
2022-08-22T13:02:34.965Z,29.83
2022-08-22T13:05:09.973Z,29.65
2022-08-22T13:07:40.391Z,29.66
2022-08-22T13:10:34.074Z,29.52
2022-08-22T13:13:12.620Z,29.58
2022-08-22T13:15:53.653Z,29.52
2022-08-22T13:18:30.591Z,29.59
2022-08-22T13:21:02.891Z,29.76
2022-08-22T13:23:40.007Z,29.55
2022-08-22T13:26:16.348Z,29.66
2022-08-22T13:32:00.530Z,29.63
2022-08-22T13:34:43.431Z,29.63
2022-08-22T13:37:17.368Z,29.63
2022-08-22T13:39:50.496Z,29.59
2022-08-22T13:42:30.031Z,29.60
2022-08-22T13:45:05.849Z,29.49
2022-08-22T13:47:39.292Z,29.47
2022-08-22T13:50:14.835Z,29.63
2022-08-22T13:52:52.259Z,29.37
2022-08-22T13:55:29.547Z,29.53
2022-08-22T13:58:06.718Z,29.34
2022-08-22T14:01:31.319Z,29.44
2022-08-22T14:04:28.802Z,29.43
2022-08-22T14:07:19.954Z,29.22
2022-08-22T14:09:56.246Z,29.12
2022-08-22T14:12:27.231Z,29.04
2022-08-22T14:14:59.922Z,29.10
2022-08-22T14:17:32.987Z,29.04
2022-08-22T14:20:04.148Z,29.03
2022-08-22T14:22:37.226Z,29.04
2022-08-22T14:25:10.638Z,29.13
2022-08-22T14:27:43.939Z,29.09
2022-08-22T14:30:18.996Z,29.10
2022-08-22T14:32:51.767Z,29.05
2022-08-22T14:35:34.801Z,29.00
2022-08-22T14:38:27.151Z,28.97
2022-08-22T14:40:59.653Z,28.73
2022-08-22T14:43:47.305Z,28.82
2022-08-22T14:46:23.521Z,28.74
2022-08-22T14:49:13.582Z,28.77
2022-08-22T14:51:50.891Z,28.66
2022-08-22T14:54:22.271Z,28.69
2022-08-22T14:56:53.327Z,28.67
2022-08-22T14:59:38.063Z,28.69
2022-08-22T15:02:11.259Z,28.65
2022-08-22T15:04:43.129Z,28.50
2022-08-22T15:07:23.118Z,28.55
2022-08-22T15:09:54.795Z,28.55
2022-08-22T15:12:28.659Z,28.59
2022-08-22T15:15:00.484Z,28.55
2022-08-22T15:17:44.336Z,28.49
2022-08-22T15:20:15.294Z,28.37
2022-08-22T15:22:46.938Z,28.28
2022-08-22T15:25:19.605Z,28.26
2022-08-22T15:27:54.126Z,28.11
2022-08-22T15:30:34.904Z,28.22
2022-08-22T15:33:11.775Z,28.27
2022-08-22T15:35:40.482Z,28.31
2022-08-22T15:38:27.793Z,28.16
2022-08-22T15:40:57.620Z,28.23
2022-08-22T15:43:35.061Z,28.18
2022-08-22T15:46:18.511Z,28.24
2022-08-22T15:48:55.980Z,28.18
2022-08-22T15:51:38.822Z,28.21
2022-08-22T15:54:24.463Z,28.18
2022-08-22T15:57:17.597Z,28.11
2022-08-22T15:59:55.432Z,28.14
2022-08-22T16:02:35.660Z,28.15
2022-08-22T16:05:24.555Z,28.10
2022-08-22T16:08:04.124Z,28.14
2022-08-22T16:10:38.671Z,28.08
2022-08-22T16:13:33.752Z,27.90
2022-08-22T16:16:05.532Z,27.77
2022-08-22T16:19:10.847Z,27.69
2022-08-22T16:22:06.678Z,27.56
2022-08-22T16:24:50.819Z,27.36
2022-08-22T16:27:23.665Z,27.34
2022-08-22T16:30:05.220Z,27.46
2022-08-22T16:32:34.840Z,27.47
2022-08-22T16:35:03.051Z,27.50
2022-08-22T16:37:48.022Z,27.52
2022-08-22T16:40:26.717Z,27.51
2022-08-22T16:43:18.495Z,27.48
2022-08-22T16:45:48.739Z,27.40
2022-08-22T16:48:34.006Z,27.39
2022-08-22T16:51:04.917Z,27.34
2022-08-22T16:54:12.235Z,27.29
2022-08-22T16:56:54.637Z,27.21
2022-08-22T16:59:48.434Z,27.16
2022-08-22T17:02:37.648Z,27.13
2022-08-22T17:05:21.650Z,27.02
2022-08-22T17:08:04.418Z,26.99
2022-08-22T17:10:45.866Z,26.96
2022-08-22T17:13:28.027Z,26.88
2022-08-22T17:16:16.969Z,26.84
2022-08-22T17:18:56.569Z,26.81
2022-08-22T17:21:29.661Z,26.78
2022-08-22T17:24:06.130Z,26.73
2022-08-22T17:26:49.006Z,26.72
2022-08-22T17:29:32.092Z,26.64
2022-08-22T17:32:11.864Z,26.44
2022-08-22T17:34:48.754Z,26.28
2022-08-22T17:37:24.203Z,26.07
2022-08-22T17:40:34.722Z,26.07
2022-08-22T17:43:27.242Z,25.72
2022-08-22T17:46:15.562Z,25.79
2022-08-22T17:48:51.530Z,25.74
2022-08-22T17:51:28.670Z,25.75
2022-08-22T17:54:02.389Z,25.63
2022-08-22T17:56:43.637Z,25.52
2022-08-22T17:59:21.091Z,25.28
2022-08-22T18:01:51.739Z,25.34
2022-08-22T18:04:31.210Z,25.40
2022-08-22T18:07:22.131Z,25.19
2022-08-22T18:09:55.793Z,25.14
2022-08-22T18:12:34.379Z,25.20
2022-08-22T18:15:08.682Z,25.23
2022-08-22T18:17:41.477Z,25.14
2022-08-22T18:20:16.794Z,25.28
2022-08-22T18:22:49.867Z,25.26
2022-08-22T18:25:40.983Z,25.29
2022-08-22T18:28:15.388Z,25.32
2022-08-22T18:30:55.720Z,25.37
2022-08-22T18:33:32.870Z,25.42
2022-08-22T18:36:10.806Z,25.47
2022-08-22T18:38:50.113Z,25.50
2022-08-22T18:41:28.481Z,25.48
2022-08-22T18:44:00.133Z,25.50
2022-08-22T18:46:45.421Z,25.41
2022-08-22T18:49:39.505Z,25.31
2022-08-22T18:52:19.704Z,25.31
2022-08-22T18:55:04.026Z,25.07
2022-08-22T18:57:47.838Z,24.81
2022-08-22T19:00:18.616Z,24.74
2022-08-22T19:03:07.936Z,24.71
2022-08-22T19:06:13.769Z,24.73
2022-08-22T19:09:17.714Z,24.53
2022-08-22T19:12:02.129Z,24.61
2022-08-22T19:14:54.411Z,24.59
2022-08-22T19:17:43.691Z,24.53
2022-08-22T19:20:42.485Z,24.58
2022-08-22T19:23:42.350Z,24.55
2022-08-22T19:26:29.052Z,24.35
2022-08-22T19:29:00.431Z,24.57
2022-08-22T19:31:48.846Z,24.29
2022-08-22T19:34:35.907Z,24.29
2022-08-22T19:37:33.359Z,24.18
2022-08-22T19:40:05.073Z,24.08
2022-08-22T19:42:40.011Z,23.87
2022-08-22T19:45:25.719Z,23.87
2022-08-22T19:48:01.169Z,23.65
2022-08-22T19:50:34.467Z,23.85
2022-08-22T19:53:32.540Z,23.85
2022-08-22T19:56:10.270Z,23.81
2022-08-22T19:58:52.384Z,23.86
2022-08-22T20:01:45.555Z,23.63
2022-08-22T20:04:38.041Z,23.84
2022-08-22T20:07:15.293Z,23.90
2022-08-22T20:09:51.934Z,23.81
2022-08-22T20:12:31.344Z,23.82
2022-08-22T20:15:18.126Z,23.85
2022-08-22T20:18:11.705Z,23.85
2022-08-22T20:20:58.710Z,23.57
2022-08-22T20:23:31.747Z,23.58
2022-08-22T20:26:00.571Z,23.60
2022-08-22T20:28:37.931Z,23.68
2022-08-22T20:31:11.732Z,23.57
2022-08-22T20:33:43.898Z,23.53
2022-08-22T20:36:28.409Z,23.57
2022-08-22T20:39:01.564Z,23.44
2022-08-22T20:41:35.781Z,23.55
2022-08-22T20:44:12.749Z,23.53
2022-08-22T20:47:04.465Z,23.52
2022-08-22T20:49:39.098Z,23.57
2022-08-22T20:52:10.719Z,23.63
2022-08-22T20:54:40.715Z,23.63
2022-08-22T20:57:16.201Z,23.60
2022-08-22T20:59:53.239Z,23.60
2022-08-22T21:02:25.863Z,23.58
2022-08-22T21:05:05.266Z,23.60
2022-08-22T21:07:36.885Z,23.60
2022-08-22T21:10:25.473Z,23.57
2022-08-22T21:13:12.269Z,23.55
2022-08-22T21:15:42.274Z,23.53
2022-08-22T21:18:12.168Z,23.36
2022-08-22T21:20:42.870Z,23.46
2022-08-22T21:23:14.882Z,23.40
2022-08-22T21:25:58.346Z,23.40
2022-08-22T21:28:28.966Z,23.33
2022-08-22T21:30:58.221Z,23.27
2022-08-22T21:33:27.035Z,23.29
2022-08-22T21:36:01.730Z,23.29
2022-08-22T21:38:30.113Z,23.28
2022-08-22T21:41:05.413Z,23.28
2022-08-22T21:43:37.003Z,23.19
2022-08-22T21:46:06.158Z,23.16
2022-08-22T21:48:41.105Z,23.08
2022-08-22T21:51:44.633Z,22.95
2022-08-22T21:54:39.879Z,22.93
2022-08-22T21:57:32.681Z,22.88
2022-08-22T22:00:00.786Z,22.72
2022-08-22T22:02:36.565Z,22.82
2022-08-22T22:05:09.134Z,22.81
2022-08-22T22:07:40.465Z,22.81
2022-08-22T22:10:12.519Z,22.66
2022-08-22T22:12:41.857Z,22.76
2022-08-22T22:15:12.689Z,22.83
2022-08-22T22:17:40.858Z,22.78
2022-08-22T22:20:10.174Z,22.47
2022-08-22T22:22:46.234Z,22.47
2022-08-22T22:25:39.825Z,22.63
2022-08-22T22:28:06.664Z,22.71
2022-08-22T22:30:34.832Z,22.71
2022-08-22T22:33:03.027Z,22.72
2022-08-22T22:35:31.738Z,22.73
2022-08-22T22:38:01.497Z,22.68
2022-08-22T22:40:29.821Z,22.53
2022-08-22T22:42:58.016Z,22.55
2022-08-22T22:45:26.291Z,22.53
2022-08-22T22:47:54.449Z,22.38
2022-08-22T22:50:23.030Z,22.60
2022-08-22T22:52:51.104Z,22.56
2022-08-22T22:55:25.155Z,22.57
2022-08-22T22:57:58.724Z,22.56
2022-08-22T23:00:30.652Z,22.50
2022-08-22T23:03:00.598Z,22.52
2022-08-22T23:05:28.971Z,22.35
2022-08-22T23:07:57.503Z,22.41
2022-08-22T23:10:28.150Z,22.34
2022-08-22T23:12:56.423Z,22.26
2022-08-22T23:15:24.554Z,22.33
2022-08-22T23:17:52.621Z,22.36
2022-08-22T23:20:20.897Z,22.30
2022-08-22T23:22:48.946Z,22.35
2022-08-22T23:25:17.117Z,22.37
2022-08-22T23:27:49.588Z,22.38
2022-08-22T23:30:21.351Z,22.34
2022-08-22T23:32:49.533Z,22.17
2022-08-22T23:35:17.734Z,22.22
2022-08-22T23:37:45.843Z,22.23
2022-08-22T23:40:13.946Z,22.31
2022-08-22T23:42:42.105Z,22.26
2022-08-22T23:45:11.944Z,22.31
2022-08-22T23:47:40.048Z,22.33
2022-08-22T23:50:08.565Z,22.33
2022-08-22T23:52:36.677Z,22.28
2022-08-22T23:55:05.743Z,22.30
2022-08-22T23:57:33.838Z,22.33
